createdAt,value
2018-02-25T00:01:54.669Z,-0.99
2018-02-25T00:04:22.090Z,-1.05
2018-02-25T00:06:49.515Z,-1.09
2018-02-25T00:09:16.931Z,-1.06
2018-02-25T00:11:44.357Z,-1.17
2018-02-25T00:14:11.780Z,-1.13
2018-02-25T00:16:39.194Z,-1.13
2018-02-25T00:19:06.626Z,-1.20
2018-02-25T00:21:34.043Z,-1.30
2018-02-25T00:24:01.462Z,-1.21
2018-02-25T00:26:28.890Z,-1.18
2018-02-25T00:28:56.303Z,-1.17
2018-02-25T00:31:23.730Z,-1.25
2018-02-25T00:33:51.191Z,-1.22
2018-02-25T00:36:18.626Z,-1.23
2018-02-25T00:38:46.047Z,-1.28
2018-02-25T00:41:13.481Z,-1.33
2018-02-25T00:43:40.902Z,-1.47
2018-02-25T00:46:08.328Z,-1.39
2018-02-25T00:48:35.758Z,-1.40
2018-02-25T00:51:03.180Z,-1.52
2018-02-25T00:53:30.598Z,-1.61
2018-02-25T00:55:58.051Z,-1.54
2018-02-25T00:58:25.466Z,-1.58
2018-02-25T01:00:52.883Z,-1.51
2018-02-25T01:03:20.314Z,-1.56
2018-02-25T01:05:47.737Z,-1.58
2018-02-25T01:08:15.158Z,-1.55
2018-02-25T01:10:42.587Z,-1.70
2018-02-25T01:13:10.006Z,-1.77
2018-02-25T01:15:37.422Z,-1.78
2018-02-25T01:18:04.871Z,-1.71
2018-02-25T01:20:32.293Z,-1.78
2018-02-25T01:22:59.702Z,-1.83
2018-02-25T01:25:27.133Z,-1.76
2018-02-25T01:27:54.546Z,-1.77
2018-02-25T01:30:21.971Z,-1.89
2018-02-25T01:32:49.410Z,-1.98
2018-02-25T01:35:16.833Z,-1.86
2018-02-25T01:37:44.247Z,-1.82
2018-02-25T01:40:11.683Z,-1.92
2018-02-25T01:42:39.112Z,-2.02
2018-02-25T01:45:06.529Z,-2.03
2018-02-25T01:47:33.962Z,-2.00
2018-02-25T01:50:01.374Z,-2.06
2018-02-25T01:52:28.794Z,-2.07
2018-02-25T01:54:56.222Z,-2.04
2018-02-25T01:57:23.659Z,-2.00
2018-02-25T01:59:51.076Z,-2.01
2018-02-25T02:02:18.510Z,-2.10
2018-02-25T02:04:45.928Z,-2.13
2018-02-25T02:07:13.343Z,-2.18
2018-02-25T02:09:40.770Z,-2.15
2018-02-25T02:12:08.184Z,-2.24
2018-02-25T02:14:35.597Z,-2.28
2018-02-25T02:17:03.043Z,-2.23
2018-02-25T02:19:30.449Z,-2.35
2018-02-25T02:21:57.865Z,-2.34
2018-02-25T02:24:25.318Z,-2.30
2018-02-25T02:26:52.718Z,-2.38
2018-02-25T02:29:20.140Z,-2.29
2018-02-25T02:31:47.571Z,-2.34
2018-02-25T02:34:14.990Z,-2.34
2018-02-25T02:36:42.416Z,-2.37
2018-02-25T02:39:10.166Z,-2.46
2018-02-25T02:41:37.583Z,-2.50
2018-02-25T02:44:05.032Z,-2.53
2018-02-25T02:46:32.466Z,-2.53
2018-02-25T02:48:59.882Z,-2.50
2018-02-25T02:51:27.298Z,-2.49
2018-02-25T02:53:54.725Z,-2.56
2018-02-25T02:56:22.151Z,-2.60
2018-02-25T02:58:49.570Z,-2.60
2018-02-25T03:01:17.003Z,-2.69
2018-02-25T03:03:44.419Z,-2.71
2018-02-25T03:06:11.835Z,-2.64
2018-02-25T03:08:39.274Z,-2.69
2018-02-25T03:11:06.690Z,-2.73
2018-02-25T03:13:34.110Z,-2.84
2018-02-25T03:16:01.546Z,-2.88
2018-02-25T03:18:28.962Z,-2.85
2018-02-25T03:20:56.390Z,-2.86
2018-02-25T03:23:23.834Z,-2.87
2018-02-25T03:25:51.258Z,-2.87
2018-02-25T03:28:18.677Z,-2.89
2018-02-25T03:30:46.111Z,-2.87
2018-02-25T03:33:13.532Z,-2.86
2018-02-25T03:35:40.952Z,-2.86
2018-02-25T03:38:08.379Z,-2.92
2018-02-25T03:40:35.790Z,-3.04
2018-02-25T03:43:03.201Z,-3.01
2018-02-25T03:45:30.634Z,-3.04
2018-02-25T03:47:58.047Z,-3.08
2018-02-25T03:50:25.470Z,-3.01
2018-02-25T03:52:52.905Z,-3.02
2018-02-25T03:55:20.330Z,-3.06
2018-02-25T03:57:47.738Z,-3.04
2018-02-25T04:00:15.162Z,-3.09
2018-02-25T04:02:42.582Z,-3.13
2018-02-25T04:05:09.998Z,-3.16
2018-02-25T04:07:37.438Z,-3.13
2018-02-25T04:10:04.873Z,-3.17
2018-02-25T04:12:32.279Z,-3.29
2018-02-25T04:14:59.710Z,-3.24
2018-02-25T04:17:27.126Z,-3.26
2018-02-25T04:19:54.543Z,-3.27
2018-02-25T04:22:21.979Z,-3.28
2018-02-25T04:24:49.390Z,-3.39
2018-02-25T04:27:17.330Z,-3.42
2018-02-25T04:29:44.758Z,-3.42
2018-02-25T04:32:12.180Z,-3.42
2018-02-25T04:34:39.598Z,-3.47
2018-02-25T04:37:07.034Z,-3.48
2018-02-25T04:39:34.458Z,-3.59
2018-02-25T04:42:01.882Z,-3.68
2018-02-25T04:44:29.326Z,-3.75
2018-02-25T04:46:56.750Z,-3.79
2018-02-25T04:49:24.170Z,-3.79
2018-02-25T04:51:51.594Z,-3.75
2018-02-25T04:54:19.011Z,-3.73
2018-02-25T04:56:46.441Z,-3.78
2018-02-25T04:59:13.878Z,-3.78
2018-02-25T05:01:41.291Z,-3.77
2018-02-25T05:04:08.714Z,-3.74
2018-02-25T05:06:36.141Z,-3.72
2018-02-25T05:09:03.567Z,-3.74
2018-02-25T05:11:30.994Z,-3.79
2018-02-25T05:13:58.436Z,-3.77
2018-02-25T05:16:25.866Z,-3.78
2018-02-25T05:18:53.283Z,-3.79
2018-02-25T05:21:20.715Z,-3.82
2018-02-25T05:23:48.130Z,-3.77
2018-02-25T05:26:15.541Z,-3.71
2018-02-25T05:28:42.975Z,-3.74
2018-02-25T05:31:10.450Z,-3.75
2018-02-25T05:33:37.866Z,-3.82
2018-02-25T05:36:05.294Z,-3.82
2018-02-25T05:38:32.709Z,-3.79
2018-02-25T05:41:00.126Z,-3.73
2018-02-25T05:43:31.425Z,-3.72
2018-02-25T05:45:58.842Z,-3.71
2018-02-25T05:48:26.270Z,-3.77
2018-02-25T05:50:53.697Z,-3.82
2018-02-25T05:53:21.112Z,-3.87
2018-02-25T05:55:48.534Z,-3.83
2018-02-25T05:58:15.961Z,-3.79
2018-02-25T06:00:43.368Z,-3.91
2018-02-25T06:03:10.777Z,-3.90
2018-02-25T06:05:38.218Z,-3.85
2018-02-25T06:08:05.636Z,-3.82
2018-02-25T06:10:33.059Z,-3.89
2018-02-25T06:13:00.483Z,-3.93
2018-02-25T06:15:27.897Z,-3.95
2018-02-25T06:17:55.334Z,-3.87
2018-02-25T06:20:22.766Z,-3.93
2018-02-25T06:22:50.186Z,-3.94
2018-02-25T06:25:17.640Z,-3.98
2018-02-25T06:27:45.098Z,-4.07
2018-02-25T06:30:20.330Z,-4.02
2018-02-25T06:32:47.762Z,-3.91
2018-02-25T06:35:15.191Z,-3.88
2018-02-25T06:37:42.606Z,-3.95
2018-02-25T06:40:13.175Z,-3.84
2018-02-25T06:42:40.590Z,-3.90
2018-02-25T06:45:08.006Z,-3.87
2018-02-25T06:47:35.459Z,-3.85
2018-02-25T06:50:02.886Z,-3.91
2018-02-25T06:52:30.298Z,-3.86
2018-02-25T06:54:57.734Z,-3.81
2018-02-25T06:57:25.150Z,-3.72
2018-02-25T06:59:52.566Z,-3.77
2018-02-25T07:02:20.003Z,-3.81
2018-02-25T07:04:47.422Z,-3.79
2018-02-25T07:07:14.838Z,-3.68
2018-02-25T07:09:42.273Z,-3.65
2018-02-25T07:12:09.695Z,-3.62
2018-02-25T07:14:37.120Z,-3.64
2018-02-25T07:17:04.554Z,-3.49
2018-02-25T07:19:31.967Z,-3.57
2018-02-25T07:21:59.386Z,-3.42
2018-02-25T07:24:26.821Z,-3.48
2018-02-25T07:26:54.272Z,-3.52
2018-02-25T07:29:21.658Z,-3.43
2018-02-25T07:31:49.119Z,-3.43
2018-02-25T07:34:16.539Z,-3.43
2018-02-25T07:36:43.974Z,-3.31
2018-02-25T07:39:11.426Z,-3.31
2018-02-25T07:41:38.848Z,-3.22
2018-02-25T07:44:06.267Z,-3.28
2018-02-25T07:46:33.695Z,-3.39
2018-02-25T07:49:01.161Z,-3.30
2018-02-25T07:51:28.595Z,-3.29
2018-02-25T07:53:56.046Z,-3.30
2018-02-25T07:56:23.465Z,-3.23
2018-02-25T07:58:50.897Z,-3.23
2018-02-25T08:01:18.365Z,-3.15
2018-02-25T08:04:02.237Z,-3.05
2018-02-25T08:06:29.669Z,-2.99
2018-02-25T08:08:57.094Z,-2.94
2018-02-25T08:11:24.523Z,-2.89
2018-02-25T08:13:51.965Z,-2.82
2018-02-25T08:16:19.386Z,-2.85
2018-02-25T08:18:46.808Z,-2.83
2018-02-25T08:21:14.279Z,-2.75
2018-02-25T08:23:41.663Z,-2.76
2018-02-25T08:26:09.086Z,-2.61
2018-02-25T08:28:36.519Z,-2.66
2018-02-25T08:31:03.941Z,-2.66
2018-02-25T08:33:31.366Z,-2.69
2018-02-25T08:35:58.801Z,-2.67
2018-02-25T08:38:26.230Z,-2.54
2018-02-25T08:40:53.647Z,-2.40
2018-02-25T08:43:21.082Z,-2.34
2018-02-25T08:45:48.498Z,-2.14
2018-02-25T08:48:15.938Z,-2.12
2018-02-25T08:50:43.371Z,-1.97
2018-02-25T08:53:10.810Z,-1.76
2018-02-25T08:55:38.238Z,-1.55
2018-02-25T08:58:05.678Z,-1.57
2018-02-25T09:00:33.101Z,-1.32
2018-02-25T09:03:00.523Z,-1.21
2018-02-25T09:05:27.958Z,-0.97
2018-02-25T09:07:55.382Z,-0.82
2018-02-25T09:10:22.798Z,-0.74
2018-02-25T09:12:50.259Z,-0.80
2018-02-25T09:15:17.689Z,-0.49
2018-02-25T09:17:45.114Z,-0.39
2018-02-25T09:20:12.552Z,-0.29
2018-02-25T09:22:39.975Z,-0.01
2018-02-25T09:25:07.400Z,0.01
2018-02-25T09:27:34.874Z,-0.18
2018-02-25T09:30:02.307Z,0.03
2018-02-25T09:32:29.778Z,0.33
2018-02-25T09:34:57.231Z,0.55
2018-02-25T09:37:24.623Z,0.48
2018-02-25T09:39:52.039Z,0.45
2018-02-25T09:42:19.466Z,0.91
2018-02-25T09:44:46.881Z,1.01
2018-02-25T09:47:14.298Z,1.09
2018-02-25T09:49:41.740Z,1.15
2018-02-25T09:52:09.162Z,1.43
2018-02-25T09:54:36.957Z,2.02
2018-02-25T09:57:04.382Z,2.25
2018-02-25T09:59:31.808Z,1.93
2018-02-25T10:01:59.281Z,1.44
2018-02-25T10:04:26.730Z,1.81
2018-02-25T10:06:54.154Z,2.23
2018-02-25T10:09:21.576Z,2.18
2018-02-25T10:11:49.078Z,2.09
2018-02-25T10:14:16.952Z,2.07
2018-02-25T10:16:44.390Z,2.33
2018-02-25T10:19:11.844Z,2.50
2018-02-25T10:21:39.268Z,2.51
2018-02-25T10:24:06.702Z,3.01
2018-02-25T10:26:34.147Z,3.35
2018-02-25T10:29:01.573Z,2.91
2018-02-25T10:31:28.999Z,3.09
2018-02-25T10:33:56.459Z,3.63
2018-02-25T10:36:23.887Z,3.77
2018-02-25T10:38:51.318Z,3.42
2018-02-25T10:41:18.756Z,3.63
2018-02-25T10:43:46.192Z,4.19
2018-02-25T10:46:13.619Z,4.28
2018-02-25T10:48:41.080Z,4.23
2018-02-25T10:51:08.622Z,4.30
2018-02-25T10:53:36.073Z,4.83
2018-02-25T10:56:03.554Z,4.62
2018-02-25T10:58:30.995Z,5.29
2018-02-25T11:01:04.104Z,5.69
2018-02-25T11:03:31.510Z,5.96
2018-02-25T11:05:58.927Z,6.04
2018-02-25T11:08:26.359Z,5.58
2018-02-25T11:10:53.775Z,5.10
2018-02-25T11:13:21.202Z,5.17
2018-02-25T11:15:48.626Z,5.13
2018-02-25T11:18:16.067Z,5.77
2018-02-25T11:20:43.513Z,6.18
2018-02-25T11:23:10.959Z,6.43
2018-02-25T11:25:38.445Z,6.61
2018-02-25T11:28:05.876Z,6.81
2018-02-25T11:30:33.307Z,7.02
2018-02-25T11:33:00.723Z,6.33
2018-02-25T11:35:28.130Z,6.00
2018-02-25T11:37:55.549Z,5.41
2018-02-25T11:40:22.961Z,5.57
2018-02-25T11:42:50.382Z,4.92
2018-02-25T11:45:17.806Z,5.14
2018-02-25T11:47:45.216Z,5.00
2018-02-25T11:50:12.621Z,5.45
2018-02-25T11:52:40.104Z,5.61
2018-02-25T11:55:07.488Z,5.26
2018-02-25T11:57:34.899Z,5.31
2018-02-25T12:00:02.331Z,5.27
2018-02-25T12:02:29.777Z,4.59
2018-02-25T12:04:57.212Z,4.73
2018-02-25T12:07:24.643Z,4.73
2018-02-25T12:09:52.071Z,4.39
2018-02-25T12:12:19.486Z,4.85
2018-02-25T12:14:46.930Z,5.44
2018-02-25T12:17:14.342Z,5.15
2018-02-25T12:19:41.776Z,5.58
2018-02-25T12:22:09.215Z,5.35
2018-02-25T12:24:36.649Z,5.69
2018-02-25T12:27:04.071Z,5.46
2018-02-25T12:29:31.540Z,5.49
2018-02-25T12:31:58.947Z,5.65
2018-02-25T12:34:26.367Z,5.30
2018-02-25T12:36:53.860Z,5.61
2018-02-25T12:39:21.293Z,5.41
2018-02-25T12:41:48.702Z,4.89
2018-02-25T12:44:16.135Z,4.70
2018-02-25T12:46:43.559Z,5.07
2018-02-25T12:49:10.997Z,5.23
2018-02-25T12:51:38.421Z,5.23
2018-02-25T12:54:05.834Z,5.51
2018-02-25T12:56:33.261Z,5.97
2018-02-25T12:59:00.698Z,5.26
2018-02-25T13:01:28.110Z,4.85
2018-02-25T13:03:55.527Z,4.69
2018-02-25T13:06:22.953Z,4.73
2018-02-25T13:08:50.754Z,5.05
2018-02-25T13:11:18.173Z,4.96
2018-02-25T13:13:45.603Z,4.81
2018-02-25T13:16:13.031Z,5.21
2018-02-25T13:18:40.450Z,5.80
2018-02-25T13:21:07.877Z,5.90
2018-02-25T13:23:35.282Z,5.32
2018-02-25T13:26:02.717Z,4.79
2018-02-25T13:28:30.153Z,4.80
2018-02-25T13:30:57.589Z,5.17
2018-02-25T13:33:25.009Z,5.69
2018-02-25T13:35:52.445Z,5.11
2018-02-25T13:38:19.871Z,4.56
2018-02-25T13:40:47.290Z,4.31
2018-02-25T13:43:14.721Z,4.50
2018-02-25T13:45:42.134Z,4.52
2018-02-25T13:48:09.549Z,4.81
2018-02-25T13:50:36.981Z,5.18
2018-02-25T13:53:04.407Z,4.91
2018-02-25T13:55:32.931Z,5.05
2018-02-25T13:58:00.354Z,5.08
2018-02-25T14:00:27.762Z,4.81
2018-02-25T14:02:55.182Z,4.47
2018-02-25T14:05:22.975Z,4.57
2018-02-25T14:07:50.394Z,4.76
2018-02-25T14:10:17.866Z,4.52
2018-02-25T14:12:45.323Z,4.65
2018-02-25T14:15:12.748Z,4.73
2018-02-25T14:17:40.166Z,4.60
2018-02-25T14:20:07.594Z,4.46
2018-02-25T14:22:35.028Z,4.44
2018-02-25T14:25:02.451Z,4.25
2018-02-25T14:27:29.896Z,3.96
2018-02-25T14:29:57.334Z,3.85
2018-02-25T14:32:24.776Z,3.91
2018-02-25T14:34:52.218Z,4.16
2018-02-25T14:37:19.665Z,4.09
2018-02-25T14:39:54.408Z,4.14
2018-02-25T14:42:21.822Z,3.76
2018-02-25T14:44:52.305Z,3.79
2018-02-25T14:47:19.757Z,3.39
2018-02-25T14:49:47.170Z,3.41
2018-02-25T14:52:14.669Z,3.41
2018-02-25T14:54:42.116Z,3.36
2018-02-25T14:57:09.534Z,3.24
2018-02-25T14:59:36.969Z,3.28
2018-02-25T15:02:04.417Z,3.39
2018-02-25T15:04:31.834Z,3.30
2018-02-25T15:06:59.257Z,3.23
2018-02-25T15:09:26.741Z,3.15
2018-02-25T15:11:54.147Z,3.07
2018-02-25T15:14:21.583Z,3.01
2018-02-25T15:16:49.018Z,3.09
2018-02-25T15:19:16.440Z,3.03
2018-02-25T15:21:43.868Z,3.05
2018-02-25T15:24:11.303Z,2.95
2018-02-25T15:26:38.726Z,2.95
2018-02-25T15:29:16.134Z,2.77
2018-02-25T15:31:43.590Z,2.62
2018-02-25T15:34:10.983Z,2.52
2018-02-25T15:36:38.414Z,2.52
2018-02-25T15:39:05.830Z,2.61
2018-02-25T15:41:33.255Z,2.58
2018-02-25T15:44:00.693Z,2.48
2018-02-25T15:46:28.118Z,2.21
2018-02-25T15:48:55.552Z,2.00
2018-02-25T15:51:23.006Z,1.98
2018-02-25T15:53:50.421Z,1.83
2018-02-25T15:56:17.858Z,1.88
2018-02-25T15:58:45.295Z,1.71
2018-02-25T16:01:12.716Z,1.65
2018-02-25T16:03:40.135Z,1.42
2018-02-25T16:06:07.568Z,1.43
2018-02-25T16:08:35.018Z,1.32
2018-02-25T16:11:02.436Z,1.23
2018-02-25T16:13:29.886Z,1.25
2018-02-25T16:15:58.164Z,1.28
2018-02-25T16:18:25.581Z,1.14
2018-02-25T16:20:53.016Z,0.95
2018-02-25T16:23:20.439Z,0.94
2018-02-25T16:25:47.898Z,0.94
2018-02-25T16:28:15.321Z,0.81
2018-02-25T16:30:42.741Z,0.69
2018-02-25T16:33:10.150Z,0.77
2018-02-25T16:35:37.591Z,0.68
2018-02-25T16:38:05.006Z,0.56
2018-02-25T16:40:32.425Z,0.51
2018-02-25T16:42:59.910Z,0.54
2018-02-25T16:45:27.378Z,0.42
2018-02-25T16:47:54.794Z,0.26
2018-02-25T16:50:22.229Z,0.24
2018-02-25T16:52:49.650Z,0.21
2018-02-25T16:55:17.067Z,0.25
2018-02-25T16:57:44.542Z,0.20
2018-02-25T17:00:11.969Z,0.20
2018-02-25T17:02:39.373Z,0.12
2018-02-25T17:05:06.811Z,0.09
2018-02-25T17:07:34.230Z,0.04
2018-02-25T17:10:01.655Z,0.01
2018-02-25T17:12:29.109Z,0.05
2018-02-25T17:14:56.514Z,0.03
2018-02-25T17:17:23.917Z,0.07
2018-02-25T17:19:51.349Z,-0.01
2018-02-25T17:22:18.771Z,0.05
2018-02-25T17:24:46.210Z,-0.07
2018-02-25T17:27:14.629Z,-0.11
2018-02-25T17:29:42.050Z,-0.02
2018-02-25T17:32:09.458Z,-0.09
2018-02-25T17:34:36.886Z,-0.12
2018-02-25T17:37:04.303Z,-0.08
2018-02-25T17:39:31.722Z,-0.10
2018-02-25T17:41:59.174Z,-0.10
2018-02-25T17:44:26.586Z,-0.04
2018-02-25T17:46:54.012Z,-0.02
2018-02-25T17:49:21.505Z,-0.04
2018-02-25T17:51:48.945Z,-0.01
2018-02-25T17:54:16.460Z,0.18
2018-02-25T17:56:43.902Z,0.16
2018-02-25T17:59:11.326Z,0.12
2018-02-25T18:01:38.751Z,0.05
2018-02-25T18:04:06.216Z,0.11
2018-02-25T18:06:33.627Z,0.26
2018-02-25T18:09:01.288Z,0.21
2018-02-25T18:11:28.868Z,0.15
2018-02-25T18:13:56.322Z,0.14
2018-02-25T18:16:23.746Z,0.18
2018-02-25T18:18:51.176Z,0.12
2018-02-25T18:21:18.630Z,0.17
2018-02-25T18:23:46.054Z,0.20
2018-02-25T18:26:13.514Z,0.25
2018-02-25T18:28:40.947Z,0.20
2018-02-25T18:31:08.365Z,0.24
2018-02-25T18:33:35.789Z,0.12
2018-02-25T18:36:03.219Z,0.05
2018-02-25T18:38:30.673Z,0.00
2018-02-25T18:40:58.112Z,0.01
2018-02-25T18:43:25.699Z,-0.10
2018-02-25T18:46:12.002Z,-0.21
2018-02-25T18:48:39.451Z,-0.19
2018-02-25T18:51:06.867Z,-0.21
2018-02-25T18:53:34.291Z,-0.12
2018-02-25T18:56:01.786Z,-0.17
2018-02-25T18:58:29.206Z,-0.24
2018-02-25T19:00:57.688Z,-0.20
2018-02-25T19:03:25.120Z,-0.14
2018-02-25T19:05:52.536Z,-0.13
2018-02-25T19:08:20.034Z,-0.10
2018-02-25T19:10:47.465Z,-0.03
2018-02-25T19:13:14.906Z,-0.08
2018-02-25T19:15:42.342Z,-0.13
2018-02-25T19:18:09.822Z,-0.14
2018-02-25T19:20:37.238Z,-0.15
2018-02-25T19:23:04.670Z,-0.21
2018-02-25T19:25:32.091Z,-0.18
2018-02-25T19:27:59.515Z,-0.26
2018-02-25T19:30:26.974Z,-0.45
2018-02-25T19:32:54.395Z,-0.49
2018-02-25T19:35:21.856Z,-0.53
2018-02-25T19:37:54.850Z,-0.66
2018-02-25T19:40:27.930Z,-0.60
2018-02-25T19:42:56.161Z,-0.59
2018-02-25T19:45:23.583Z,-0.65
2018-02-25T19:47:50.998Z,-0.65
2018-02-25T19:50:18.459Z,-0.66
2018-02-25T19:52:45.874Z,-0.68
2018-02-25T19:55:13.294Z,-0.66
2018-02-25T19:57:40.725Z,-0.79
2018-02-25T20:00:08.211Z,-0.81
2018-02-25T20:02:35.630Z,-0.90
2018-02-25T20:05:03.066Z,-0.89
2018-02-25T20:07:30.504Z,-0.91
2018-02-25T20:09:57.924Z,-1.01
2018-02-25T20:12:25.374Z,-0.98
2018-02-25T20:14:52.848Z,-1.07
2018-02-25T20:17:20.258Z,-1.00
2018-02-25T20:19:47.694Z,-1.13
2018-02-25T20:22:15.115Z,-1.14
2018-02-25T20:24:42.550Z,-1.06
2018-02-25T20:27:09.982Z,-1.10
2018-02-25T20:29:37.403Z,-1.20
2018-02-25T20:32:04.823Z,-1.28
2018-02-25T20:34:32.293Z,-1.32
2018-02-25T20:36:59.715Z,-1.24
2018-02-25T20:39:27.129Z,-1.29
2018-02-25T20:41:54.564Z,-1.27
2018-02-25T20:44:21.980Z,-1.29
2018-02-25T20:46:49.386Z,-1.36
2018-02-25T20:49:16.817Z,-1.36
2018-02-25T20:51:44.241Z,-1.42
2018-02-25T20:54:11.642Z,-1.47
2018-02-25T20:56:39.142Z,-1.42
2018-02-25T20:59:06.558Z,-1.47
2018-02-25T21:01:33.976Z,-1.59
2018-02-25T21:04:01.402Z,-1.64
2018-02-25T21:06:28.817Z,-1.65
2018-02-25T21:08:56.232Z,-1.60
2018-02-25T21:11:23.658Z,-1.66
2018-02-25T21:13:51.065Z,-1.74
2018-02-25T21:16:18.482Z,-1.79
2018-02-25T21:18:45.964Z,-1.83
2018-02-25T21:21:13.373Z,-1.77
2018-02-25T21:23:40.794Z,-1.83
2018-02-25T21:26:08.231Z,-1.82
2018-02-25T21:28:35.646Z,-1.86
2018-02-25T21:31:03.070Z,-1.86
2018-02-25T21:33:30.515Z,-1.92
2018-02-25T21:35:57.929Z,-1.99
2018-02-25T21:38:25.346Z,-1.93
2018-02-25T21:40:52.806Z,-1.96
2018-02-25T21:43:20.238Z,-1.97
2018-02-25T21:45:47.650Z,-2.00
2018-02-25T21:48:15.074Z,-2.06
2018-02-25T21:50:42.491Z,-2.07
2018-02-25T21:53:14.827Z,-2.10
2018-02-25T21:55:47.747Z,-2.15
2018-02-25T21:58:20.749Z,-2.19
2018-02-25T22:00:53.846Z,-2.28
2018-02-25T22:03:36.819Z,-2.26
2018-02-25T22:06:04.243Z,-2.33
2018-02-25T22:08:31.654Z,-2.32
2018-02-25T22:10:59.088Z,-2.33
2018-02-25T22:13:26.501Z,-2.42
2018-02-25T22:15:53.922Z,-2.38
2018-02-25T22:18:21.371Z,-2.29
2018-02-25T22:20:48.789Z,-2.40
2018-02-25T22:23:16.211Z,-2.56
2018-02-25T22:25:43.692Z,-2.63
2018-02-25T22:28:11.118Z,-2.57
2018-02-25T22:30:38.554Z,-2.62
2018-02-25T22:33:05.989Z,-2.69
2018-02-25T22:35:33.407Z,-2.62
2018-02-25T22:38:00.822Z,-2.68
2018-02-25T22:40:28.265Z,-2.65
2018-02-25T22:42:55.685Z,-2.72
2018-02-25T22:45:23.101Z,-2.80
2018-02-25T22:47:50.546Z,-2.85
2018-02-25T22:50:17.964Z,-2.83
2018-02-25T22:52:45.377Z,-2.79
2018-02-25T22:55:12.810Z,-2.82
2018-02-25T22:57:40.230Z,-2.84
2018-02-25T23:00:07.662Z,-2.82
2018-02-25T23:02:35.098Z,-2.90
2018-02-25T23:05:02.524Z,-2.89
2018-02-25T23:07:29.937Z,-2.87
2018-02-25T23:09:57.388Z,-2.90
2018-02-25T23:12:24.810Z,-2.92
2018-02-25T23:14:52.227Z,-2.90
2018-02-25T23:17:19.658Z,-2.88
2018-02-25T23:19:47.082Z,-2.89
2018-02-25T23:22:14.498Z,-2.91
2018-02-25T23:24:41.937Z,-2.97
2018-02-25T23:27:09.365Z,-2.96
2018-02-25T23:29:36.779Z,-3.04
2018-02-25T23:32:04.208Z,-3.00
2018-02-25T23:34:31.621Z,-3.14
2018-02-25T23:36:59.037Z,-3.10
2018-02-25T23:39:26.470Z,-3.10
2018-02-25T23:41:53.915Z,-3.05
2018-02-25T23:44:21.334Z,-3.08
2018-02-25T23:46:48.778Z,-3.05
2018-02-25T23:49:16.199Z,-3.09
2018-02-25T23:51:43.614Z,-3.10
2018-02-25T23:54:11.043Z,-3.21
2018-02-25T23:56:38.458Z,-3.22
2018-02-25T23:59:05.882Z,-3.28
